createdAt,value
2023-02-15T00:00:12.227Z,75.22
2023-02-15T00:02:41.190Z,43.60
2023-02-15T00:05:10.157Z,68.40
2023-02-15T00:07:36.964Z,61.83
2023-02-15T00:10:05.476Z,45.83
2023-02-15T00:12:32.291Z,40.38
2023-02-15T00:14:59.348Z,35.15
2023-02-15T00:17:29.746Z,42.75
2023-02-15T00:19:56.662Z,38.58
2023-02-15T00:22:23.841Z,33.28
2023-02-15T00:24:51.048Z,33.58
2023-02-15T00:27:17.875Z,32.35
2023-02-15T00:29:44.870Z,34.50
2023-02-15T00:32:11.648Z,35.67
2023-02-15T00:34:38.424Z,33.70
2023-02-15T00:37:07.036Z,34.97
2023-02-15T00:39:34.178Z,28.30
2023-02-15T00:42:01.919Z,31.25
2023-02-15T00:44:29.320Z,30.52
2023-02-15T00:46:56.094Z,28.17
2023-02-15T00:49:22.844Z,30.38
2023-02-15T00:51:50.143Z,29.75
2023-02-15T00:54:18.149Z,28.35
2023-02-15T00:56:45.063Z,28.27
2023-02-15T00:59:12.592Z,27.60
2023-02-15T01:01:39.486Z,28.50
2023-02-15T01:04:07.646Z,26.73
2023-02-15T01:06:35.071Z,31.52
2023-02-15T01:09:02.189Z,29.73
2023-02-15T01:11:30.798Z,27.10
2023-02-15T01:13:59.144Z,28.90
2023-02-15T01:16:28.708Z,29.80
2023-02-15T01:18:56.364Z,27.15
2023-02-15T01:21:25.726Z,26.83
2023-02-15T01:23:52.801Z,33.78
2023-02-15T01:26:22.444Z,30.05
2023-02-15T01:28:49.331Z,30.38
2023-02-15T01:31:19.329Z,36.25
2023-02-15T01:33:47.500Z,32.15
2023-02-15T01:36:15.430Z,29.00
2023-02-15T01:38:42.904Z,31.75
2023-02-15T01:41:27.315Z,31.75
2023-02-15T01:44:00.846Z,30.15
2023-02-15T01:46:47.759Z,30.38
2023-02-15T01:49:22.127Z,30.25
2023-02-15T01:51:53.444Z,33.38
2023-02-15T01:54:26.536Z,35.25
2023-02-15T01:56:56.103Z,31.75
2023-02-15T01:59:27.381Z,35.15
2023-02-15T02:01:59.587Z,32.25
2023-02-15T02:04:56.374Z,32.97
2023-02-15T02:07:29.234Z,29.77
2023-02-15T02:09:56.272Z,37.15
2023-02-15T02:12:24.886Z,31.23
2023-02-15T02:14:52.822Z,30.67
2023-02-15T02:17:52.703Z,31.50
2023-02-15T02:20:38.051Z,39.40
2023-02-15T02:23:36.826Z,43.70
2023-02-15T02:26:27.874Z,34.30
2023-02-15T02:29:04.669Z,34.22
2023-02-15T02:32:11.321Z,36.28
2023-02-15T02:35:13.308Z,54.17
2023-02-15T02:38:22.184Z,33.30
2023-02-15T02:41:31.025Z,46.30
2023-02-15T02:43:59.928Z,34.55
2023-02-15T02:46:38.994Z,28.77
2023-02-15T02:49:05.924Z,36.90
2023-02-15T02:51:32.834Z,30.60
2023-02-15T02:54:06.647Z,48.50
2023-02-15T02:56:39.581Z,36.53
2023-02-15T02:59:22.582Z,34.63
2023-02-15T03:02:05.798Z,44.20
2023-02-15T03:04:37.251Z,29.10
2023-02-15T03:07:15.266Z,33.75
2023-02-15T03:09:51.227Z,32.05
2023-02-15T03:12:28.233Z,31.38
2023-02-15T03:15:19.413Z,27.60
2023-02-15T03:17:57.658Z,29.73
2023-02-15T03:20:33.746Z,34.30
2023-02-15T03:23:14.871Z,29.92
2023-02-15T03:25:45.715Z,31.00
2023-02-15T03:28:26.391Z,31.48
2023-02-15T03:30:57.069Z,28.90
2023-02-15T03:33:27.113Z,27.48
2023-02-15T03:36:04.576Z,27.98
2023-02-15T03:39:06.146Z,29.23
2023-02-15T03:41:48.903Z,30.50
2023-02-15T03:44:45.052Z,28.27
2023-02-15T03:47:21.285Z,28.63
2023-02-15T03:49:53.947Z,33.65
2023-02-15T03:52:22.983Z,51.67
2023-02-15T03:54:50.740Z,25.13
2023-02-15T03:57:48.614Z,26.73
2023-02-15T04:00:38.964Z,29.25
2023-02-15T04:03:41.529Z,38.72
2023-02-15T04:06:08.952Z,30.10
2023-02-15T04:08:54.318Z,31.67
2023-02-15T04:11:21.073Z,25.60
2023-02-15T04:13:47.823Z,43.95
2023-02-15T04:16:14.821Z,34.47
2023-02-15T04:19:03.682Z,27.67
2023-02-15T04:21:50.190Z,27.70
2023-02-15T04:24:36.417Z,29.35
2023-02-15T04:27:05.262Z,25.67
2023-02-15T04:29:32.324Z,26.80
2023-02-15T04:32:04.202Z,26.38
2023-02-15T04:34:31.391Z,22.45
2023-02-15T04:36:58.213Z,25.33
2023-02-15T04:39:25.068Z,30.23
2023-02-15T04:41:51.865Z,28.38
2023-02-15T04:44:19.195Z,24.98
2023-02-15T04:46:46.005Z,29.48
2023-02-15T04:49:12.840Z,26.30
2023-02-15T04:51:39.638Z,24.80
2023-02-15T04:54:06.505Z,31.35
2023-02-15T04:56:35.737Z,26.63
2023-02-15T04:59:02.785Z,26.35
2023-02-15T05:01:29.865Z,25.33
2023-02-15T05:03:56.738Z,23.52
2023-02-15T05:06:24.199Z,21.17
2023-02-15T05:08:51.428Z,26.08
2023-02-15T05:11:18.238Z,25.60
2023-02-15T05:13:45.059Z,23.13
2023-02-15T05:16:11.976Z,25.13
2023-02-15T05:18:38.785Z,23.80
2023-02-15T05:23:33.572Z,29.10
2023-02-15T05:26:18.622Z,32.45
2023-02-15T05:28:45.473Z,29.95
2023-02-15T05:31:15.978Z,38.42
2023-02-15T05:33:43.345Z,27.23
2023-02-15T05:36:11.165Z,28.40
2023-02-15T05:38:38.913Z,34.92
2023-02-15T05:41:12.220Z,29.52
2023-02-15T05:43:39.951Z,27.67
2023-02-15T05:46:07.539Z,51.65
2023-02-15T05:48:35.097Z,38.13
2023-02-15T05:51:08.490Z,73.78
2023-02-15T05:53:38.874Z,27.33
2023-02-15T05:56:08.023Z,41.67
2023-02-15T05:58:38.757Z,44.60
2023-02-15T06:01:14.601Z,25.08
2023-02-15T06:03:42.126Z,30.75
2023-02-15T06:06:10.493Z,35.05
2023-02-15T06:08:38.851Z,53.33
2023-02-15T06:11:07.315Z,33.33
2023-02-15T06:13:38.343Z,41.80
2023-02-15T06:16:06.947Z,43.50
2023-02-15T06:18:34.141Z,61.15
2023-02-15T06:21:00.964Z,49.03
2023-02-15T06:23:28.728Z,40.53
2023-02-15T06:25:55.708Z,25.10
2023-02-15T06:28:23.362Z,54.85
2023-02-15T06:30:50.381Z,47.00
2023-02-15T06:33:17.442Z,46.58
2023-02-15T06:35:49.322Z,69.93
2023-02-15T06:38:16.287Z,35.20
2023-02-15T06:40:43.449Z,60.92
2023-02-15T06:43:10.390Z,37.25
2023-02-15T06:45:37.999Z,53.60
2023-02-15T06:48:07.842Z,108.07
2023-02-15T06:50:35.680Z,83.90
2023-02-15T06:53:03.185Z,93.43
2023-02-15T06:55:30.620Z,69.65
2023-02-15T06:57:57.643Z,72.75
2023-02-15T07:00:24.503Z,55.22
2023-02-15T07:02:56.962Z,70.25
2023-02-15T07:05:31.646Z,34.72
2023-02-15T07:08:01.345Z,55.33
2023-02-15T07:10:29.467Z,57.42
2023-02-15T07:12:56.666Z,45.95
2023-02-15T07:15:24.231Z,38.58
2023-02-15T07:17:51.188Z,30.85
2023-02-15T07:20:23.095Z,43.42
2023-02-15T07:22:51.235Z,24.48
2023-02-15T07:25:19.884Z,31.85
2023-02-15T07:27:47.897Z,34.67
2023-02-15T07:30:18.535Z,40.17
2023-02-15T07:33:05.640Z,27.90
2023-02-15T07:35:34.226Z,34.55
2023-02-15T07:38:02.031Z,59.05
2023-02-15T07:40:29.503Z,33.05
2023-02-15T07:43:00.516Z,27.88
2023-02-15T07:45:28.352Z,30.48
2023-02-15T07:47:56.136Z,56.13
2023-02-15T07:50:23.540Z,28.77
2023-02-15T07:52:50.829Z,30.10
2023-02-15T07:55:17.643Z,56.35
2023-02-15T07:57:46.754Z,60.42
2023-02-15T08:00:21.744Z,42.40
2023-02-15T08:03:15.307Z,85.50
2023-02-15T08:05:45.010Z,64.13
2023-02-15T08:08:30.548Z,37.85
2023-02-15T08:11:34.235Z,38.97
2023-02-15T08:16:52.371Z,119.97
2023-02-15T08:19:28.686Z,86.07
2023-02-15T08:21:59.790Z,93.60
2023-02-15T08:24:35.310Z,104.57
2023-02-15T08:27:06.369Z,105.13
2023-02-15T08:29:36.602Z,134.18
2023-02-15T08:32:08.894Z,69.82
2023-02-15T08:34:41.662Z,69.70
2023-02-15T08:37:08.620Z,135.30
2023-02-15T08:39:35.837Z,65.10
2023-02-15T08:42:03.504Z,97.30
2023-02-15T08:44:31.351Z,77.47
2023-02-15T08:47:03.587Z,111.13
2023-02-15T08:49:32.198Z,59.25
2023-02-15T08:51:59.181Z,93.05
2023-02-15T08:54:26.708Z,46.45
2023-02-15T08:56:55.033Z,133.70
2023-02-15T08:59:24.093Z,42.75
2023-02-15T09:01:54.576Z,56.80
2023-02-15T09:04:23.740Z,127.68
2023-02-15T09:06:52.697Z,103.65
2023-02-15T09:09:21.630Z,42.33
2023-02-15T09:11:57.904Z,100.47
2023-02-15T09:14:28.373Z,82.97
2023-02-15T09:16:55.800Z,44.22
2023-02-15T09:19:26.327Z,46.65
2023-02-15T09:21:53.806Z,33.58
2023-02-15T09:24:22.742Z,77.20
2023-02-15T09:26:51.062Z,43.05
2023-02-15T09:29:20.830Z,43.38
2023-02-15T09:31:52.870Z,31.77
2023-02-15T09:34:23.548Z,41.60
2023-02-15T09:36:52.201Z,46.00
2023-02-15T09:39:22.032Z,76.63
2023-02-15T09:42:13.415Z,35.55
2023-02-15T09:45:10.480Z,47.40
2023-02-15T09:47:54.916Z,72.05
2023-02-15T09:50:49.080Z,29.63
2023-02-15T09:54:05.010Z,33.58
2023-02-15T09:56:43.152Z,33.70
2023-02-15T09:59:34.013Z,29.77
2023-02-15T10:02:44.757Z,25.33
2023-02-15T10:05:50.422Z,25.80
2023-02-15T10:08:54.632Z,27.02
2023-02-15T10:12:13.304Z,46.47
2023-02-15T10:15:12.536Z,35.67
2023-02-15T10:18:08.338Z,25.70
2023-02-15T10:20:45.830Z,27.88
2023-02-15T10:24:00.505Z,22.08
2023-02-15T10:26:51.145Z,23.27
2023-02-15T10:29:34.527Z,22.77
2023-02-15T10:32:24.764Z,25.13
2023-02-15T10:35:35.779Z,23.35
2023-02-15T10:38:14.637Z,21.38
2023-02-15T10:40:47.415Z,21.08
2023-02-15T10:43:45.607Z,22.15
2023-02-15T10:46:40.804Z,23.38
2023-02-15T10:49:45.206Z,21.60
2023-02-15T10:53:02.091Z,19.52
2023-02-15T10:55:51.990Z,21.95
2023-02-15T10:59:01.131Z,23.17
2023-02-15T11:01:50.023Z,19.77
2023-02-15T11:04:48.984Z,18.02
2023-02-15T11:07:34.825Z,18.67
2023-02-15T11:10:24.604Z,20.73
2023-02-15T11:12:52.659Z,21.02
2023-02-15T11:15:36.496Z,21.30
2023-02-15T11:18:28.847Z,20.08
2023-02-15T11:21:04.607Z,17.25
2023-02-15T11:23:34.941Z,21.90
2023-02-15T11:26:09.857Z,25.73
2023-02-15T11:28:49.636Z,24.90
2023-02-15T11:31:23.927Z,24.02
2023-02-15T11:34:05.763Z,20.65
2023-02-15T11:36:41.573Z,24.52
2023-02-15T11:39:17.281Z,23.92
2023-02-15T11:41:54.760Z,19.75
2023-02-15T11:44:34.206Z,19.00
2023-02-15T11:47:02.448Z,22.15
2023-02-15T11:49:35.624Z,23.55
2023-02-15T11:52:07.303Z,26.08
2023-02-15T11:54:38.176Z,24.05
2023-02-15T11:57:34.806Z,21.92
2023-02-15T12:00:20.491Z,24.42
2023-02-15T12:02:53.665Z,23.23
2023-02-15T12:05:25.220Z,23.33
2023-02-15T12:08:22.022Z,24.95
2023-02-15T12:11:00.236Z,26.35
2023-02-15T12:13:27.687Z,24.60
2023-02-15T12:15:57.875Z,25.33
2023-02-15T12:18:54.274Z,27.77
2023-02-15T12:21:40.778Z,30.33
2023-02-15T12:24:16.601Z,25.95
2023-02-15T12:26:43.837Z,26.65
2023-02-15T12:29:18.445Z,22.48
2023-02-15T12:31:48.731Z,25.67
2023-02-15T12:34:32.234Z,27.92
2023-02-15T12:37:03.921Z,28.20
2023-02-15T12:39:33.209Z,25.55
2023-02-15T12:42:03.144Z,26.30
2023-02-15T12:44:36.738Z,28.77
2023-02-15T12:47:03.727Z,27.02
2023-02-15T12:49:38.377Z,26.90
2023-02-15T12:52:18.702Z,30.13
2023-02-15T12:54:45.620Z,24.27
2023-02-15T12:57:35.728Z,24.90
2023-02-15T13:00:29.314Z,27.67
2023-02-15T13:02:58.795Z,25.30
2023-02-15T13:05:45.322Z,27.52
2023-02-15T13:08:17.235Z,29.33
2023-02-15T13:11:12.813Z,29.27
2023-02-15T13:13:55.845Z,27.40
2023-02-15T13:16:33.055Z,30.23
2023-02-15T13:19:07.114Z,25.35
2023-02-15T13:21:40.567Z,30.02
2023-02-15T13:24:23.707Z,30.73
2023-02-15T13:29:33.950Z,29.30
2023-02-15T13:32:25.616Z,30.80
2023-02-15T13:34:58.997Z,35.13
2023-02-15T13:37:37.729Z,29.05
2023-02-15T13:40:15.429Z,29.45
2023-02-15T13:42:50.578Z,32.67
2023-02-15T13:45:54.454Z,27.85
2023-02-15T13:48:51.420Z,30.80
2023-02-15T13:51:39.296Z,29.27
2023-02-15T13:54:20.336Z,30.52
2023-02-15T13:57:26.472Z,26.50
2023-02-15T14:00:09.525Z,28.85
2023-02-15T14:02:51.224Z,26.42
2023-02-15T14:05:52.685Z,27.73
2023-02-15T14:08:41.502Z,30.45
2023-02-15T14:11:28.595Z,28.83
2023-02-15T14:14:36.688Z,25.92
2023-02-15T14:17:46.781Z,27.90
2023-02-15T14:20:43.820Z,27.63
2023-02-15T14:23:46.432Z,32.78
2023-02-15T14:26:46.887Z,29.52
2023-02-15T14:29:44.027Z,30.63
2023-02-15T14:32:38.164Z,30.25
2023-02-15T14:35:14.690Z,34.80
2023-02-15T14:37:59.783Z,25.30
2023-02-15T14:41:09.638Z,29.52
2023-02-15T14:44:08.294Z,32.25
2023-02-15T14:46:59.425Z,28.67
2023-02-15T14:49:32.086Z,28.02
2023-02-15T14:52:01.605Z,30.67
2023-02-15T14:54:31.261Z,29.88
2023-02-15T14:57:04.441Z,26.13
2023-02-15T14:59:59.265Z,28.52
2023-02-15T15:02:31.635Z,30.15
2023-02-15T15:05:10.468Z,30.10
2023-02-15T15:07:57.390Z,29.85
2023-02-15T15:10:24.285Z,29.90
2023-02-15T15:12:56.371Z,32.58
2023-02-15T15:15:31.933Z,33.57
2023-02-15T15:18:08.736Z,31.90
2023-02-15T15:20:45.722Z,28.58
2023-02-15T15:23:15.670Z,32.58
2023-02-15T15:25:57.108Z,29.27
2023-02-15T15:28:36.352Z,30.17
2023-02-15T15:31:30.133Z,33.42
2023-02-15T15:34:29.279Z,34.72
2023-02-15T15:37:19.635Z,32.15
2023-02-15T15:40:21.553Z,32.67
2023-02-15T15:44:02.555Z,29.85
2023-02-15T15:46:57.417Z,34.75
2023-02-15T15:49:31.603Z,29.70
2023-02-15T15:52:03.944Z,28.15
2023-02-15T15:54:31.643Z,30.58
2023-02-15T15:57:04.828Z,31.95
2023-02-15T15:59:34.835Z,33.83
2023-02-15T16:02:07.927Z,35.15
2023-02-15T16:04:35.864Z,45.42
2023-02-15T16:07:18.534Z,45.05
2023-02-15T16:10:04.369Z,37.00
2023-02-15T16:12:36.914Z,34.40
2023-02-15T16:15:17.633Z,38.45
2023-02-15T16:17:48.521Z,32.92
2023-02-15T16:20:30.955Z,34.47
2023-02-15T16:23:57.090Z,34.70
2023-02-15T16:26:48.192Z,34.08
2023-02-15T16:29:18.039Z,34.03
2023-02-15T16:32:15.870Z,38.63
2023-02-15T16:35:00.044Z,33.20
2023-02-15T16:37:33.666Z,35.65
2023-02-15T16:40:00.871Z,33.72
2023-02-15T16:42:28.004Z,41.45
2023-02-15T16:45:13.308Z,34.40
2023-02-15T16:47:48.020Z,33.15
2023-02-15T16:50:28.414Z,34.65
2023-02-15T16:52:55.482Z,35.38
2023-02-15T16:55:26.510Z,34.58
2023-02-15T16:57:59.967Z,34.03
2023-02-15T17:00:30.832Z,31.33
2023-02-15T17:03:23.690Z,36.60
2023-02-15T17:06:00.917Z,33.55
2023-02-15T17:08:42.913Z,43.60
2023-02-15T17:11:22.663Z,47.45
2023-02-15T17:14:09.714Z,40.05
2023-02-15T17:16:50.465Z,42.30
2023-02-15T17:19:24.459Z,40.97
2023-02-15T17:22:02.413Z,36.60
2023-02-15T17:24:32.622Z,37.03
2023-02-15T17:27:06.395Z,37.17
2023-02-15T17:29:47.284Z,37.15
2023-02-15T17:32:24.272Z,32.90
2023-02-15T17:35:05.257Z,34.88
2023-02-15T17:37:46.282Z,40.17
2023-02-15T17:40:27.678Z,48.33
2023-02-15T17:42:55.148Z,37.83
2023-02-15T17:45:27.057Z,41.55
2023-02-15T17:47:55.739Z,29.20
2023-02-15T17:50:26.876Z,35.83
2023-02-15T17:52:56.753Z,38.15
2023-02-15T17:55:41.245Z,37.33
2023-02-15T17:58:16.460Z,39.50
2023-02-15T18:01:11.614Z,37.60
2023-02-15T18:04:12.415Z,36.35
2023-02-15T18:07:01.386Z,45.72
2023-02-15T18:09:46.648Z,43.28
2023-02-15T18:12:23.953Z,39.03
2023-02-15T18:14:52.288Z,43.20
2023-02-15T18:17:19.597Z,41.35
2023-02-15T18:19:47.925Z,40.40
2023-02-15T18:22:19.849Z,40.63
2023-02-15T18:24:50.417Z,40.60
2023-02-15T18:27:17.256Z,40.95
2023-02-15T18:29:44.106Z,41.33
2023-02-15T18:32:23.982Z,41.88
2023-02-15T18:34:52.397Z,41.97
2023-02-15T18:37:22.263Z,42.05
2023-02-15T18:39:56.232Z,51.70
2023-02-15T18:42:36.501Z,46.75
2023-02-15T18:45:28.546Z,48.90
2023-02-15T18:47:57.176Z,46.13
2023-02-15T18:50:35.817Z,43.33
2023-02-15T18:53:20.892Z,45.97
2023-02-15T18:55:49.599Z,65.85
2023-02-15T18:58:23.673Z,75.15
2023-02-15T19:00:51.606Z,56.63
2023-02-15T19:03:19.519Z,62.42
2023-02-15T19:05:48.112Z,47.28
2023-02-15T19:08:25.801Z,47.45
2023-02-15T19:10:53.456Z,47.03
2023-02-15T19:13:21.209Z,47.53
2023-02-15T19:15:48.128Z,47.38
2023-02-15T19:18:15.722Z,52.15
2023-02-15T19:20:45.688Z,50.72
2023-02-15T19:23:19.482Z,48.00
2023-02-15T19:25:48.426Z,49.65
2023-02-15T19:28:30.632Z,50.10
2023-02-15T19:30:57.423Z,47.83
2023-02-15T19:33:24.323Z,48.60
2023-02-15T19:35:57.754Z,48.58
2023-02-15T19:38:31.052Z,49.72
2023-02-15T19:41:05.059Z,49.33
2023-02-15T19:43:34.165Z,56.10
2023-02-15T19:46:01.703Z,49.78
2023-02-15T19:48:29.012Z,52.70
2023-02-15T19:50:57.047Z,55.88
2023-02-15T19:53:26.904Z,62.08
2023-02-15T19:55:54.506Z,61.38
2023-02-15T19:58:22.167Z,59.92
2023-02-15T20:00:51.695Z,58.88
2023-02-15T20:03:18.839Z,53.60
2023-02-15T20:05:47.240Z,54.83
2023-02-15T20:08:20.358Z,56.17
2023-02-15T20:10:48.269Z,53.92
2023-02-15T20:13:19.155Z,53.53
2023-02-15T20:15:47.584Z,58.88
2023-02-15T20:18:14.631Z,56.75
2023-02-15T20:20:55.051Z,59.47
2023-02-15T20:23:31.573Z,56.53
2023-02-15T20:26:01.811Z,79.43
2023-02-15T20:28:31.801Z,92.60
2023-02-15T20:31:00.831Z,65.95
2023-02-15T20:33:29.640Z,61.75
2023-02-15T20:35:56.537Z,68.13
2023-02-15T20:38:31.484Z,60.83
2023-02-15T20:41:19.382Z,57.20
2023-02-15T20:43:46.318Z,54.38
2023-02-15T20:46:13.182Z,54.58
2023-02-15T20:48:41.061Z,85.57
2023-02-15T20:51:18.999Z,60.15
2023-02-15T20:53:47.350Z,64.10
2023-02-15T20:56:23.881Z,67.45
2023-02-15T20:58:54.550Z,117.45
2023-02-15T21:01:21.755Z,86.13
2023-02-15T21:03:50.507Z,74.95
2023-02-15T21:06:18.189Z,86.05
2023-02-15T21:08:46.491Z,77.82
2023-02-15T21:11:23.265Z,72.60
2023-02-15T21:13:51.285Z,56.30
2023-02-15T21:16:18.201Z,66.72
2023-02-15T21:18:46.328Z,85.43
2023-02-15T21:21:23.423Z,83.68
2023-02-15T21:23:52.177Z,54.08
2023-02-15T21:26:22.588Z,54.47
2023-02-15T21:28:50.796Z,50.80
2023-02-15T21:31:22.387Z,55.47
2023-02-15T21:33:49.632Z,49.17
2023-02-15T21:36:20.844Z,72.10
2023-02-15T21:38:49.720Z,49.72
2023-02-15T21:41:40.129Z,51.97
2023-02-15T21:44:41.143Z,54.08
2023-02-15T21:47:47.948Z,66.57
2023-02-15T21:50:37.778Z,51.95
2023-02-15T21:53:09.679Z,51.63
2023-02-15T21:55:36.977Z,36.88
2023-02-15T21:58:05.311Z,51.20
2023-02-15T22:00:34.060Z,49.67
2023-02-15T22:03:02.025Z,64.20
2023-02-15T22:05:33.162Z,53.38
2023-02-15T22:08:01.515Z,53.42
2023-02-15T22:10:32.925Z,53.63
2023-02-15T22:13:04.418Z,50.05
2023-02-15T22:15:38.221Z,49.92
2023-02-15T22:18:06.849Z,50.78
2023-02-15T22:20:34.939Z,54.20
2023-02-15T22:23:01.977Z,63.95
2023-02-15T22:25:29.004Z,46.33
2023-02-15T22:27:55.909Z,49.10
2023-02-15T22:30:30.033Z,44.50
2023-02-15T22:32:58.821Z,51.95
2023-02-15T22:35:31.614Z,48.88
2023-02-15T22:37:58.963Z,53.28
2023-02-15T22:40:33.925Z,53.75
2023-02-15T22:43:04.865Z,50.05
2023-02-15T22:45:33.723Z,60.97
2023-02-15T22:48:03.151Z,48.67
2023-02-15T22:50:33.203Z,64.47
2023-02-15T22:53:02.364Z,50.55
2023-02-15T22:55:33.972Z,59.50
2023-02-15T22:58:02.737Z,50.25
2023-02-15T23:00:40.672Z,52.40
2023-02-15T23:03:28.962Z,47.40
2023-02-15T23:05:56.694Z,55.17
2023-02-15T23:08:23.619Z,49.58
2023-02-15T23:10:56.300Z,53.28
2023-02-15T23:13:32.488Z,53.42
2023-02-15T23:16:03.350Z,49.38
2023-02-15T23:18:41.356Z,56.83
2023-02-15T23:21:41.447Z,46.67
2023-02-15T23:24:23.691Z,53.72
2023-02-15T23:26:51.184Z,48.97
2023-02-15T23:29:23.797Z,49.35
2023-02-15T23:31:53.669Z,47.97
2023-02-15T23:34:25.837Z,52.63
2023-02-15T23:36:52.746Z,42.28
2023-02-15T23:39:45.589Z,49.47
2023-02-15T23:42:25.042Z,46.50
2023-02-15T23:44:52.252Z,47.00
2023-02-15T23:47:42.453Z,54.20
2023-02-15T23:50:26.003Z,50.67
2023-02-15T23:52:54.281Z,49.13
2023-02-15T23:55:21.854Z,53.92
2023-02-15T23:57:49.613Z,50.22
